sensor_id;sensor_type;location;lat;lon;timestamp;pressure;altitude;pressure_sealevel;temperature;humidity
49723;BME280;43484;43.608;1.458;2024-01-25T00:01:37;101302.44;;;9.87;100.00
49723;BME280;43484;43.608;1.458;2024-01-25T00:04:04;101303.31;;;9.87;100.00
49723;BME280;43484;43.608;1.458;2024-01-25T00:06:31;101289.56;;;9.85;100.00
49723;BME280;43484;43.608;1.458;2024-01-25T00:08:58;101295.56;;;9.86;100.00
49723;BME280;43484;43.608;1.458;2024-01-25T00:11:24;101283.38;;;9.82;100.00
49723;BME280;43484;43.608;1.458;2024-01-25T00:13:51;101288.34;;;9.79;100.00
49723;BME280;43484;43.608;1.458;2024-01-25T00:16:18;101279.44;;;9.72;100.00
49723;BME280;43484;43.608;1.458;2024-01-25T00:18:44;101277.59;;;9.70;100.00
49723;BME280;43484;43.608;1.458;2024-01-25T00:21:11;101278.31;;;9.67;100.00
49723;BME280;43484;43.608;1.458;2024-01-25T00:23:38;101271.00;;;9.59;100.00
49723;BME280;43484;43.608;1.458;2024-01-25T00:26:04;101265.06;;;9.60;100.00
49723;BME280;43484;43.608;1.458;2024-01-25T00:28:31;101263.50;;;9.62;100.00
49723;BME280;43484;43.608;1.458;2024-01-25T00:31:00;101253.09;;;9.59;100.00
49723;BME280;43484;43.608;1.458;2024-01-25T00:33:26;101254.50;;;9.54;100.00
49723;BME280;43484;43.608;1.458;2024-01-25T00:35:53;101249.66;;;9.58;100.00
49723;BME280;43484;43.608;1.458;2024-01-25T00:38:20;101248.50;;;9.53;100.00
49723;BME280;43484;43.608;1.458;2024-01-25T00:40:47;101241.56;;;9.51;100.00
49723;BME280;43484;43.608;1.458;2024-01-25T00:43:14;101247.44;;;9.50;100.00
49723;BME280;43484;43.608;1.458;2024-01-25T00:45:41;101242.00;;;9.44;100.00
49723;BME280;43484;43.608;1.458;2024-01-25T00:48:09;101249.84;;;9.47;100.00
49723;BME280;43484;43.608;1.458;2024-01-25T00:50:37;101240.94;;;9.40;100.00
49723;BME280;43484;43.608;1.458;2024-01-25T00:53:04;101247.81;;;9.41;100.00
49723;BME280;43484;43.608;1.458;2024-01-25T00:55:31;101233.72;;;9.33;100.00
49723;BME280;43484;43.608;1.458;2024-01-25T00:57:58;101232.75;;;9.31;100.00
49723;BME280;43484;43.608;1.458;2024-01-25T01:00:26;101237.09;;;9.32;100.00
49723;BME280;43484;43.608;1.458;2024-01-25T01:02:53;101238.22;;;9.23;100.00
49723;BME280;43484;43.608;1.458;2024-01-25T01:05:20;101250.66;;;9.17;100.00
49723;BME280;43484;43.608;1.458;2024-01-25T01:07:48;101252.97;;;9.12;100.00
49723;BME280;43484;43.608;1.458;2024-01-25T01:10:16;101246.72;;;9.07;100.00
49723;BME280;43484;43.608;1.458;2024-01-25T01:12:43;101252.59;;;9.06;100.00
49723;BME280;43484;43.608;1.458;2024-01-25T01:15:10;101259.50;;;9.07;100.00
49723;BME280;43484;43.608;1.458;2024-01-25T01:17:36;101264.53;;;9.06;100.00
49723;BME280;43484;43.608;1.458;2024-01-25T01:20:03;101263.88;;;9.10;100.00
49723;BME280;43484;43.608;1.458;2024-01-25T01:22:31;101262.47;;;9.15;100.00
49723;BME280;43484;43.608;1.458;2024-01-25T01:24:57;101257.38;;;9.15;100.00
49723;BME280;43484;43.608;1.458;2024-01-25T01:27:24;101253.22;;;9.17;100.00
49723;BME280;43484;43.608;1.458;2024-01-25T01:29:51;101247.78;;;9.11;100.00
49723;BME280;43484;43.608;1.458;2024-01-25T01:32:17;101250.50;;;9.14;100.00
49723;BME280;43484;43.608;1.458;2024-01-25T01:34:44;101245.22;;;9.11;100.00
49723;BME280;43484;43.608;1.458;2024-01-25T01:37:11;101237.72;;;9.14;100.00
49723;BME280;43484;43.608;1.458;2024-01-25T01:39:38;101239.72;;;9.05;100.00
49723;BME280;43484;43.608;1.458;2024-01-25T01:42:05;101241.31;;;9.03;100.00
49723;BME280;43484;43.608;1.458;2024-01-25T01:44:31;101237.34;;;9.08;100.00
49723;BME280;43484;43.608;1.458;2024-01-25T01:46:58;101243.72;;;9.14;100.00
49723;BME280;43484;43.608;1.458;2024-01-25T01:49:26;101243.34;;;9.08;100.00
49723;BME280;43484;43.608;1.458;2024-01-25T01:51:53;101239.91;;;9.08;100.00
49723;BME280;43484;43.608;1.458;2024-01-25T01:54:20;101232.16;;;9.06;100.00
49723;BME280;43484;43.608;1.458;2024-01-25T01:56:47;101234.72;;;9.06;100.00
49723;BME280;43484;43.608;1.458;2024-01-25T01:59:15;101223.16;;;8.98;100.00
49723;BME280;43484;43.608;1.458;2024-01-25T02:01:42;101225.97;;;9.03;100.00
49723;BME280;43484;43.608;1.458;2024-01-25T02:04:09;101223.78;;;9.09;100.00
49723;BME280;43484;43.608;1.458;2024-01-25T02:06:35;101224.13;;;9.15;100.00
49723;BME280;43484;43.608;1.458;2024-01-25T02:09:02;101220.00;;;9.17;100.00
49723;BME280;43484;43.608;1.458;2024-01-25T02:11:29;101221.06;;;9.20;100.00
49723;BME280;43484;43.608;1.458;2024-01-25T02:13:56;101228.19;;;9.26;100.00
49723;BME280;43484;43.608;1.458;2024-01-25T02:16:23;101227.72;;;9.33;100.00
49723;BME280;43484;43.608;1.458;2024-01-25T02:18:50;101224.88;;;9.43;100.00
49723;BME280;43484;43.608;1.458;2024-01-25T02:21:17;101229.47;;;9.48;100.00
49723;BME280;43484;43.608;1.458;2024-01-25T02:23:43;101227.81;;;9.49;100.00
49723;BME280;43484;43.608;1.458;2024-01-25T02:26:10;101228.50;;;9.46;100.00
49723;BME280;43484;43.608;1.458;2024-01-25T02:28:37;101218.19;;;9.45;100.00
49723;BME280;43484;43.608;1.458;2024-01-25T02:31:04;101220.91;;;9.48;100.00
49723;BME280;43484;43.608;1.458;2024-01-25T02:33:30;101212.44;;;9.49;100.00
49723;BME280;43484;43.608;1.458;2024-01-25T02:35:58;101213.06;;;9.45;100.00
49723;BME280;43484;43.608;1.458;2024-01-25T02:38:25;101200.94;;;9.41;100.00
49723;BME280;43484;43.608;1.458;2024-01-25T02:40:51;101206.66;;;9.37;100.00
49723;BME280;43484;43.608;1.458;2024-01-25T02:43:20;101204.97;;;9.37;100.00
49723;BME280;43484;43.608;1.458;2024-01-25T02:45:47;101212.91;;;9.42;100.00
49723;BME280;43484;43.608;1.458;2024-01-25T02:48:15;101218.03;;;9.42;100.00
49723;BME280;43484;43.608;1.458;2024-01-25T02:50:42;101221.38;;;9.41;100.00
49723;BME280;43484;43.608;1.458;2024-01-25T02:53:08;101218.91;;;9.42;100.00
49723;BME280;43484;43.608;1.458;2024-01-25T02:55:35;101216.28;;;9.41;100.00
49723;BME280;43484;43.608;1.458;2024-01-25T02:58:01;101219.44;;;9.37;100.00
49723;BME280;43484;43.608;1.458;2024-01-25T03:00:28;101226.06;;;9.33;100.00
49723;BME280;43484;43.608;1.458;2024-01-25T03:02:55;101222.44;;;9.30;100.00
49723;BME280;43484;43.608;1.458;2024-01-25T03:05:22;101225.97;;;9.32;100.00
49723;BME280;43484;43.608;1.458;2024-01-25T03:07:49;101227.72;;;9.33;100.00
49723;BME280;43484;43.608;1.458;2024-01-25T03:10:17;101223.41;;;9.32;100.00
49723;BME280;43484;43.608;1.458;2024-01-25T03:12:44;101225.16;;;9.33;100.00
49723;BME280;43484;43.608;1.458;2024-01-25T03:15:10;101216.91;;;9.22;100.00
49723;BME280;43484;43.608;1.458;2024-01-25T03:17:37;101227.50;;;9.14;100.00
49723;BME280;43484;43.608;1.458;2024-01-25T03:20:05;101217.59;;;9.20;100.00
49723;BME280;43484;43.608;1.458;2024-01-25T03:22:32;101231.22;;;9.04;100.00
49723;BME280;43484;43.608;1.458;2024-01-25T03:24:58;101221.16;;;9.07;100.00
49723;BME280;43484;43.608;1.458;2024-01-25T03:27:25;101222.00;;;9.08;100.00
49723;BME280;43484;43.608;1.458;2024-01-25T03:29:52;101223.16;;;9.13;100.00
49723;BME280;43484;43.608;1.458;2024-01-25T03:32:18;101212.94;;;8.98;100.00
49723;BME280;43484;43.608;1.458;2024-01-25T03:34:45;101213.41;;;9.06;100.00
49723;BME280;43484;43.608;1.458;2024-01-25T03:37:12;101210.13;;;9.08;100.00
49723;BME280;43484;43.608;1.458;2024-01-25T03:39:39;101208.53;;;9.10;100.00
49723;BME280;43484;43.608;1.458;2024-01-25T03:42:05;101196.00;;;9.15;100.00
49723;BME280;43484;43.608;1.458;2024-01-25T03:44:32;101189.41;;;9.18;100.00
49723;BME280;43484;43.608;1.458;2024-01-25T03:46:59;101193.19;;;9.25;100.00
49723;BME280;43484;43.608;1.458;2024-01-25T03:49:25;101191.44;;;9.24;100.00
49723;BME280;43484;43.608;1.458;2024-01-25T03:51:52;101185.63;;;9.12;100.00
49723;BME280;43484;43.608;1.458;2024-01-25T03:54:19;101183.88;;;9.11;100.00
49723;BME280;43484;43.608;1.458;2024-01-25T03:56:45;101180.66;;;9.15;100.00
49723;BME280;43484;43.608;1.458;2024-01-25T03:59:12;101181.97;;;9.23;100.00
49723;BME280;43484;43.608;1.458;2024-01-25T04:01:44;101190.53;;;9.23;100.00
49723;BME280;43484;43.608;1.458;2024-01-25T04:04:11;101186.16;;;9.21;100.00
49723;BME280;43484;43.608;1.458;2024-01-25T04:06:43;101180.84;;;9.18;100.00
49723;BME280;43484;43.608;1.458;2024-01-25T04:09:10;101181.72;;;9.18;100.00
49723;BME280;43484;43.608;1.458;2024-01-25T04:11:37;101188.63;;;9.19;100.00
49723;BME280;43484;43.608;1.458;2024-01-25T04:14:04;101190.22;;;9.17;100.00
49723;BME280;43484;43.608;1.458;2024-01-25T04:16:32;101184.44;;;9.21;100.00
49723;BME280;43484;43.608;1.458;2024-01-25T04:19:00;101179.25;;;9.20;100.00
49723;BME280;43484;43.608;1.458;2024-01-25T04:21:27;101179.41;;;9.23;100.00
49723;BME280;43484;43.608;1.458;2024-01-25T04:23:54;101180.22;;;9.22;100.00
49723;BME280;43484;43.608;1.458;2024-01-25T04:26:21;101177.66;;;9.22;100.00
49723;BME280;43484;43.608;1.458;2024-01-25T04:28:47;101186.16;;;9.21;100.00
49723;BME280;43484;43.608;1.458;2024-01-25T04:31:14;101192.19;;;9.23;100.00
49723;BME280;43484;43.608;1.458;2024-01-25T04:33:41;101197.69;;;9.29;100.00
49723;BME280;43484;43.608;1.458;2024-01-25T04:36:13;101197.69;;;9.29;100.00
49723;BME280;43484;43.608;1.458;2024-01-25T04:38:40;101203.03;;;9.33;100.00
49723;BME280;43484;43.608;1.458;2024-01-25T04:41:07;101198.91;;;9.35;100.00
49723;BME280;43484;43.608;1.458;2024-01-25T04:43:36;101205.19;;;9.26;100.00
49723;BME280;43484;43.608;1.458;2024-01-25T04:46:04;101200.84;;;9.25;100.00
49723;BME280;43484;43.608;1.458;2024-01-25T04:48:31;101211.44;;;9.31;100.00
49723;BME280;43484;43.608;1.458;2024-01-25T04:50:59;101208.50;;;9.25;100.00
49723;BME280;43484;43.608;1.458;2024-01-25T04:53:26;101209.66;;;9.30;100.00
49723;BME280;43484;43.608;1.458;2024-01-25T04:55:54;101209.03;;;9.34;100.00
49723;BME280;43484;43.608;1.458;2024-01-25T04:58:21;101216.19;;;9.39;100.00
49723;BME280;43484;43.608;1.458;2024-01-25T05:00:48;101217.78;;;9.37;100.00
49723;BME280;43484;43.608;1.458;2024-01-25T05:03:17;101220.50;;;9.40;100.00
49723;BME280;43484;43.608;1.458;2024-01-25T05:05:43;101221.38;;;9.41;100.00
49723;BME280;43484;43.608;1.458;2024-01-25T05:08:10;101222.31;;;9.43;100.00
49723;BME280;43484;43.608;1.458;2024-01-25T05:10:37;101224.03;;;9.42;100.00
49723;BME280;43484;43.608;1.458;2024-01-25T05:13:04;101225.53;;;9.39;100.00
49723;BME280;43484;43.608;1.458;2024-01-25T05:15:30;101231.06;;;9.46;100.00
49723;BME280;43484;43.608;1.458;2024-01-25T05:17:57;101232.75;;;9.46;100.00
49723;BME280;43484;43.608;1.458;2024-01-25T05:20:24;101237.13;;;9.48;100.00
49723;BME280;43484;43.608;1.458;2024-01-25T05:22:55;101239.78;;;9.50;100.00
49723;BME280;43484;43.608;1.458;2024-01-25T05:25:22;101246.59;;;9.49;100.00
49723;BME280;43484;43.608;1.458;2024-01-25T05:27:48;101245.78;;;9.50;100.00
49723;BME280;43484;43.608;1.458;2024-01-25T05:30:15;101248.66;;;9.56;100.00
49723;BME280;43484;43.608;1.458;2024-01-25T05:32:42;101253.53;;;9.52;100.00
49723;BME280;43484;43.608;1.458;2024-01-25T05:35:08;101262.81;;;9.50;100.00
49723;BME280;43484;43.608;1.458;2024-01-25T05:37:36;101260.00;;;9.45;100.00
49723;BME280;43484;43.608;1.458;2024-01-25T05:40:03;101263.44;;;9.46;100.00
49723;BME280;43484;43.608;1.458;2024-01-25T05:42:30;101261.75;;;9.46;100.00
49723;BME280;43484;43.608;1.458;2024-01-25T05:44:59;101267.84;;;9.48;100.00
49723;BME280;43484;43.608;1.458;2024-01-25T05:47:25;101266.78;;;9.45;100.00
49723;BME280;43484;43.608;1.458;2024-01-25T05:49:52;101260.69;;;9.43;100.00
49723;BME280;43484;43.608;1.458;2024-01-25T05:52:19;101273.13;;;9.37;100.00
49723;BME280;43484;43.608;1.458;2024-01-25T05:54:48;101270.25;;;9.31;100.00
49723;BME280;43484;43.608;1.458;2024-01-25T05:57:14;101266.34;;;9.37;100.00
49723;BME280;43484;43.608;1.458;2024-01-25T05:59:41;101264.66;;;9.38;100.00
49723;BME280;43484;43.608;1.458;2024-01-25T06:02:07;101270.25;;;9.31;100.00
49723;BME280;43484;43.608;1.458;2024-01-25T06:04:35;101270.25;;;9.31;100.00
49723;BME280;43484;43.608;1.458;2024-01-25T06:07:02;101275.53;;;9.34;100.00
49723;BME280;43484;43.608;1.458;2024-01-25T06:09:29;101276.22;;;9.31;100.00
49723;BME280;43484;43.608;1.458;2024-01-25T06:11:56;101277.91;;;9.31;100.00
49723;BME280;43484;43.608;1.458;2024-01-25T06:14:23;101288.41;;;9.35;100.00
49723;BME280;43484;43.608;1.458;2024-01-25T06:16:50;101269.88;;;9.39;100.00
49723;BME280;43484;43.608;1.458;2024-01-25T06:19:16;101269.19;;;9.27;100.00
49723;BME280;43484;43.608;1.458;2024-01-25T06:21:43;101269.88;;;9.25;100.00
49723;BME280;43484;43.608;1.458;2024-01-25T06:24:10;101271.38;;;9.21;100.00
49723;BME280;43484;43.608;1.458;2024-01-25T06:26:37;101267.78;;;9.32;100.00
49723;BME280;43484;43.608;1.458;2024-01-25T06:29:03;101276.75;;;9.40;100.00
49723;BME280;43484;43.608;1.458;2024-01-25T06:31:30;101272.97;;;9.34;100.00
49723;BME280;43484;43.608;1.458;2024-01-25T06:33:57;101266.97;;;9.33;100.00
49723;BME280;43484;43.608;1.458;2024-01-25T06:36:24;101273.66;;;9.31;100.00
49723;BME280;43484;43.608;1.458;2024-01-25T06:38:51;101272.81;;;9.31;100.00
49723;BME280;43484;43.608;1.458;2024-01-25T06:41:18;101265.19;;;9.47;100.00
49723;BME280;43484;43.608;1.458;2024-01-25T06:43:44;101278.69;;;9.44;100.00
49723;BME280;43484;43.608;1.458;2024-01-25T06:46:11;101269.78;;;9.38;100.00
49723;BME280;43484;43.608;1.458;2024-01-25T06:48:38;101267.06;;;9.20;100.00
49723;BME280;43484;43.608;1.458;2024-01-25T06:51:04;101267.75;;;9.18;100.00
49723;BME280;43484;43.608;1.458;2024-01-25T06:53:31;101265.38;;;9.06;100.00
49723;BME280;43484;43.608;1.458;2024-01-25T06:55:58;101255.72;;;9.01;100.00
49723;BME280;43484;43.608;1.458;2024-01-25T06:58:25;101252.94;;;8.98;100.00
49723;BME280;43484;43.608;1.458;2024-01-25T07:00:52;101248.72;;;8.98;100.00
49723;BME280;43484;43.608;1.458;2024-01-25T07:03:19;101238.75;;;9.03;100.00
49723;BME280;43484;43.608;1.458;2024-01-25T07:05:47;101251.66;;;9.04;100.00
49723;BME280;43484;43.608;1.458;2024-01-25T07:08:13;101242.84;;;8.99;100.00
49723;BME280;43484;43.608;1.458;2024-01-25T07:10:41;101231.81;;;9.00;100.00
49723;BME280;43484;43.608;1.458;2024-01-25T07:13:08;101228.19;;;8.97;100.00
49723;BME280;43484;43.608;1.458;2024-01-25T07:15:36;101228.13;;;8.95;100.00
49723;BME280;43484;43.608;1.458;2024-01-25T07:18:02;101237.34;;;8.93;100.00
49723;BME280;43484;43.608;1.458;2024-01-25T07:20:30;101237.28;;;8.92;100.00
49723;BME280;43484;43.608;1.458;2024-01-25T07:22:56;101232.25;;;8.93;100.00
49723;BME280;43484;43.608;1.458;2024-01-25T07:25:23;101231.66;;;8.97;100.00
49723;BME280;43484;43.608;1.458;2024-01-25T07:27:50;101235.44;;;9.04;100.00
49723;BME280;43484;43.608;1.458;2024-01-25T07:30:17;101237.19;;;9.05;100.00
49723;BME280;43484;43.608;1.458;2024-01-25T07:32:44;101234.44;;;9.02;100.00
49723;BME280;43484;43.608;1.458;2024-01-25T07:35:12;101228.28;;;8.98;100.00
49723;BME280;43484;43.608;1.458;2024-01-25T07:37:39;101237.25;;;9.06;100.00
49723;BME280;43484;43.608;1.458;2024-01-25T07:40:08;101233.94;;;9.07;100.00
49723;BME280;43484;43.608;1.458;2024-01-25T07:42:35;101243.81;;;9.16;100.00
49723;BME280;43484;43.608;1.458;2024-01-25T07:45:02;101234.63;;;9.19;100.00
49723;BME280;43484;43.608;1.458;2024-01-25T07:47:28;101231.44;;;9.23;100.00
49723;BME280;43484;43.608;1.458;2024-01-25T07:49:56;101230.75;;;9.26;100.00
49723;BME280;43484;43.608;1.458;2024-01-25T07:52:23;101229.25;;;9.29;100.00
49723;BME280;43484;43.608;1.458;2024-01-25T07:54:53;101225.00;;;9.30;100.00
49723;BME280;43484;43.608;1.458;2024-01-25T07:57:20;101220.69;;;9.29;100.00
49723;BME280;43484;43.608;1.458;2024-01-25T07:59:46;101225.63;;;9.26;100.00
49723;BME280;43484;43.608;1.458;2024-01-25T08:02:13;101223.78;;;9.23;100.00
49723;BME280;43484;43.608;1.458;2024-01-25T08:04:45;101229.59;;;9.06;100.00
49723;BME280;43484;43.608;1.458;2024-01-25T08:07:12;101221.56;;;9.15;100.00
49723;BME280;43484;43.608;1.458;2024-01-25T08:09:39;101223.09;;;8.97;100.00
49723;BME280;43484;43.608;1.458;2024-01-25T08:12:05;101223.78;;;9.09;100.00
49723;BME280;43484;43.608;1.458;2024-01-25T08:14:32;101235.00;;;9.11;100.00
49723;BME280;43484;43.608;1.458;2024-01-25T08:16:59;101224.69;;;9.09;100.00
49723;BME280;43484;43.608;1.458;2024-01-25T08:19:26;101232.78;;;9.02;100.00
49723;BME280;43484;43.608;1.458;2024-01-25T08:21:53;101218.94;;;8.99;100.00
49723;BME280;43484;43.608;1.458;2024-01-25T08:24:19;101227.06;;;8.92;100.00
49723;BME280;43484;43.608;1.458;2024-01-25T08:26:46;101234.44;;;9.02;100.00
49723;BME280;43484;43.608;1.458;2024-01-25T08:29:13;101224.31;;;9.03;100.00
49723;BME280;43484;43.608;1.458;2024-01-25T08:31:39;101233.47;;;9.00;100.00
49723;BME280;43484;43.608;1.458;2024-01-25T08:34:06;101237.28;;;8.92;100.00
49723;BME280;43484;43.608;1.458;2024-01-25T08:36:33;101232.00;;;8.88;100.00
49723;BME280;43484;43.608;1.458;2024-01-25T08:39:00;101229.94;;;8.68;100.00
49723;BME280;43484;43.608;1.458;2024-01-25T08:41:27;101230.31;;;8.89;100.00
49723;BME280;43484;43.608;1.458;2024-01-25T08:43:58;101228.28;;;8.98;100.00
49723;BME280;43484;43.608;1.458;2024-01-25T08:46:25;101233.66;;;9.03;100.00
49723;BME280;43484;43.608;1.458;2024-01-25T08:48:51;101230.22;;;9.02;100.00
49723;BME280;43484;43.608;1.458;2024-01-25T08:51:18;101235.50;;;9.05;100.00
49723;BME280;43484;43.608;1.458;2024-01-25T08:53:45;101225.81;;;9.00;100.00
49723;BME280;43484;43.608;1.458;2024-01-25T08:56:12;101225.13;;;9.02;100.00
49723;BME280;43484;43.608;1.458;2024-01-25T08:58:38;101226.63;;;8.99;100.00
49723;BME280;43484;43.608;1.458;2024-01-25T09:01:05;101222.28;;;8.98;100.00
49723;BME280;43484;43.608;1.458;2024-01-25T09:03:32;101220.06;;;8.74;100.00
49723;BME280;43484;43.608;1.458;2024-01-25T09:05:59;101215.59;;;8.85;100.00
49723;BME280;43484;43.608;1.458;2024-01-25T09:08:32;101219.97;;;8.87;100.00
49723;BME280;43484;43.608;1.458;2024-01-25T09:10:58;101218.66;;;8.79;100.00
49723;BME280;43484;43.608;1.458;2024-01-25T09:13:25;101215.25;;;8.79;100.00
49723;BME280;43484;43.608;1.458;2024-01-25T09:15:52;101217.72;;;8.92;100.00
49723;BME280;43484;43.608;1.458;2024-01-25T09:18:18;101230.66;;;9.10;100.00
49723;BME280;43484;43.608;1.458;2024-01-25T09:20:46;101221.84;;;8.90;100.00
49723;BME280;43484;43.608;1.458;2024-01-25T09:23:15;101223.09;;;8.97;100.00
49723;BME280;43484;43.608;1.458;2024-01-25T09:25:45;101217.03;;;9.09;100.00
49723;BME280;43484;43.608;1.458;2024-01-25T09:28:12;101213.13;;;9.16;100.00
49723;BME280;43484;43.608;1.458;2024-01-25T09:30:39;101212.69;;;9.08;100.00
49723;BME280;43484;43.608;1.458;2024-01-25T09:33:07;101206.69;;;9.08;100.00
49723;BME280;43484;43.608;1.458;2024-01-25T09:35:33;101205.97;;;9.10;100.00
49723;BME280;43484;43.608;1.458;2024-01-25T09:38:01;101198.13;;;9.22;100.00
49723;BME280;43484;43.608;1.458;2024-01-25T09:40:27;101177.47;;;9.33;100.00
49723;BME280;43484;43.608;1.458;2024-01-25T09:42:55;101170.03;;;9.38;100.00
49723;BME280;43484;43.608;1.458;2024-01-25T09:45:23;101164.28;;;9.26;100.00
49723;BME280;43484;43.608;1.458;2024-01-25T09:47:50;101152.94;;;9.37;100.00
49723;BME280;43484;43.608;1.458;2024-01-25T09:50:17;101151.97;;;9.35;100.00
49723;BME280;43484;43.608;1.458;2024-01-25T09:52:44;101141.44;;;9.29;100.00
49723;BME280;43484;43.608;1.458;2024-01-25T09:55:17;101133.31;;;9.36;100.00
49723;BME280;43484;43.608;1.458;2024-01-25T09:57:46;101119.09;;;9.41;100.00
49723;BME280;43484;43.608;1.458;2024-01-25T10:00:16;101114.06;;;9.42;100.00
49723;BME280;43484;43.608;1.458;2024-01-25T10:02:43;101103.00;;;9.43;100.00
49723;BME280;43484;43.608;1.458;2024-01-25T10:05:10;101101.66;;;9.34;100.00
49723;BME280;43484;43.608;1.458;2024-01-25T10:07:42;101092.84;;;9.29;100.00
49723;BME280;43484;43.608;1.458;2024-01-25T10:10:11;101090.16;;;9.42;100.00
49723;BME280;43484;43.608;1.458;2024-01-25T10:12:40;101080.41;;;9.51;100.00
49723;BME280;43484;43.608;1.458;2024-01-25T10:15:07;101081.78;;;9.60;100.00
49723;BME280;43484;43.608;1.458;2024-01-25T10:17:34;101077.22;;;9.71;100.00
49723;BME280;43484;43.608;1.458;2024-01-25T10:20:21;101068.34;;;9.64;100.00
49723;BME280;43484;43.608;1.458;2024-01-25T10:22:51;101058.19;;;9.66;100.00
49723;BME280;43484;43.608;1.458;2024-01-25T10:25:20;101048.81;;;9.66;100.00
49723;BME280;43484;43.608;1.458;2024-01-25T10:27:47;101047.25;;;9.84;100.00
49723;BME280;43484;43.608;1.458;2024-01-25T10:30:16;101045.16;;;9.77;100.00
49723;BME280;43484;43.608;1.458;2024-01-25T10:32:45;101027.13;;;9.92;100.00
49723;BME280;43484;43.608;1.458;2024-01-25T10:35:14;101021.16;;;9.75;100.00
49723;BME280;43484;43.608;1.458;2024-01-25T10:37:43;101014.50;;;9.95;100.00
49723;BME280;43484;43.608;1.458;2024-01-25T10:40:10;101012.56;;;10.07;100.00
49723;BME280;43484;43.608;1.458;2024-01-25T10:42:37;100997.19;;;10.07;100.00
49723;BME280;43484;43.608;1.458;2024-01-25T10:45:05;100982.16;;;10.13;100.00
49723;BME280;43484;43.608;1.458;2024-01-25T10:47:33;100978.00;;;10.15;100.00
49723;BME280;43484;43.608;1.458;2024-01-25T10:50:02;100969.13;;;10.08;100.00
49723;BME280;43484;43.608;1.458;2024-01-25T10:52:30;100953.91;;;10.11;100.00
49723;BME280;43484;43.608;1.458;2024-01-25T10:54:58;100943.69;;;10.11;100.00
49723;BME280;43484;43.608;1.458;2024-01-25T10:57:25;100929.81;;;9.90;100.00
49723;BME280;43484;43.608;1.458;2024-01-25T10:59:52;100930.69;;;9.91;100.00
49723;BME280;43484;43.608;1.458;2024-01-25T11:02:19;100927.63;;;9.98;100.00
49723;BME280;43484;43.608;1.458;2024-01-25T11:04:55;100922.28;;;9.93;100.00
49723;BME280;43484;43.608;1.458;2024-01-25T11:07:22;100911.69;;;9.86;100.00
49723;BME280;43484;43.608;1.458;2024-01-25T11:09:52;100906.56;;;9.86;100.00
49723;BME280;43484;43.608;1.458;2024-01-25T11:12:19;100900.13;;;9.94;100.00
49723;BME280;43484;43.608;1.458;2024-01-25T11:14:54;100905.38;;;9.97;100.00
49723;BME280;43484;43.608;1.458;2024-01-25T11:17:22;100888.38;;;9.97;100.00
49723;BME280;43484;43.608;1.458;2024-01-25T11:19:50;100894.25;;;9.96;100.00
49723;BME280;43484;43.608;1.458;2024-01-25T11:22:17;100889.97;;;9.95;100.00
49723;BME280;43484;43.608;1.458;2024-01-25T11:24:44;100894.50;;;10.01;100.00
49723;BME280;43484;43.608;1.458;2024-01-25T11:27:12;100886.31;;;9.90;100.00
49723;BME280;43484;43.608;1.458;2024-01-25T11:29:41;100882.00;;;9.89;100.00
49723;BME280;43484;43.608;1.458;2024-01-25T11:32:10;100884.09;;;9.98;100.00
49723;BME280;43484;43.608;1.458;2024-01-25T11:34:36;100876.53;;;9.99;100.00
49723;BME280;43484;43.608;1.458;2024-01-25T11:37:03;100871.75;;;10.07;100.00
49723;BME280;43484;43.608;1.458;2024-01-25T11:39:31;100876.47;;;10.16;100.00
49723;BME280;43484;43.608;1.458;2024-01-25T11:41:58;100865.34;;;10.33;100.00
49723;BME280;43484;43.608;1.458;2024-01-25T11:44:25;100867.53;;;10.43;100.00
49723;BME280;43484;43.608;1.458;2024-01-25T11:46:54;100854.19;;;10.50;100.00
49723;BME280;43484;43.608;1.458;2024-01-25T11:49:24;100853.88;;;10.61;100.00
49723;BME280;43484;43.608;1.458;2024-01-25T11:51:51;100834.31;;;10.63;100.00
49723;BME280;43484;43.608;1.458;2024-01-25T11:54:18;100837.00;;;10.66;100.00
49723;BME280;43484;43.608;1.458;2024-01-25T11:56:45;100828.44;;;10.66;100.00
49723;BME280;43484;43.608;1.458;2024-01-25T11:59:12;100823.38;;;10.67;100.00
49723;BME280;43484;43.608;1.458;2024-01-25T12:01:40;100820.94;;;10.70;100.00
49723;BME280;43484;43.608;1.458;2024-01-25T12:04:07;100810.59;;;10.86;100.00
49723;BME280;43484;43.608;1.458;2024-01-25T12:06:35;100799.91;;;10.96;100.00
49723;BME280;43484;43.608;1.458;2024-01-25T12:09:09;100792.47;;;11.02;100.00
49723;BME280;43484;43.608;1.458;2024-01-25T12:11:40;100780.53;;;11.03;100.00
49723;BME280;43484;43.608;1.458;2024-01-25T12:14:09;100770.28;;;11.03;100.00
49723;BME280;43484;43.608;1.458;2024-01-25T12:16:35;100763.31;;;11.00;100.00
49723;BME280;43484;43.608;1.458;2024-01-25T12:19:04;100765.88;;;11.00;100.00
49723;BME280;43484;43.608;1.458;2024-01-25T12:21:35;100760.53;;;11.15;100.00
49723;BME280;43484;43.608;1.458;2024-01-25T12:24:03;100753.16;;;11.22;100.00
49723;BME280;43484;43.608;1.458;2024-01-25T12:26:35;100741.06;;;11.40;100.00
49723;BME280;43484;43.608;1.458;2024-01-25T12:29:02;100735.50;;;11.51;100.00
49723;BME280;43484;43.608;1.458;2024-01-25T12:31:29;100719.31;;;11.52;100.00
49723;BME280;43484;43.608;1.458;2024-01-25T12:33:56;100710.78;;;11.53;100.00
49723;BME280;43484;43.608;1.458;2024-01-25T12:36:24;100707.69;;;11.82;100.00
49723;BME280;43484;43.608;1.458;2024-01-25T12:38:51;100694.28;;;11.89;100.00
49723;BME280;43484;43.608;1.458;2024-01-25T12:41:18;100696.28;;;11.97;100.00
49723;BME280;43484;43.608;1.458;2024-01-25T12:43:45;100688.53;;;11.96;100.00
49723;BME280;43484;43.608;1.458;2024-01-25T12:46:12;100698.06;;;11.98;100.00
49723;BME280;43484;43.608;1.458;2024-01-25T12:48:52;100704.19;;;12.02;100.00